TimeCET,TemperatureF,Dew PointF,Humidity,Sea Level PressureIn,VisibilityMPH,Wind Direction,Wind SpeedMPH,Gust SpeedMPH,PrecipitationIn,Events,Conditions,WindDirDegrees,DateUTC
1:00 AM,35,33,89,30.26,,ENE,4.5,,,,,60,2012-11-17 00:00:00
5:15 AM,33.8,32.0,93,30.21,-9999.0,ENE,4.6,-,N/A,,Clear,70,2012-11-17 04:15:00
5:45 AM,33.8,32.0,93,30.21,-9999.0,ENE,3.5,-,N/A,,Clear,60,2012-11-17 04:45:00
6:00 AM,-9999,-9999,N/A,-9999,1.9,ENE,5.8,-,N/A,,Mist,70,2012-11-17 05:00:00
6:15 AM,33.8,32.0,93,30.21,4.3,ENE,2.3,-,N/A,,Mostly Cloudy,60,2012-11-17 05:15:00
6:45 AM,33.8,32.0,93,30.21,3.7,NNE,1.2,-,N/A,,Mostly Cloudy,30,2012-11-17 05:45:00
7:00 AM,33,31,92,30.23,4,NNE,2.2,,,,Partly Cloudy,30,2012-11-17 06:00:00
7:15 AM,33.8,32.0,93,30.21,3.7,East,3.5,-,N/A,,Mostly Cloudy,80,2012-11-17 06:15:00
7:45 AM,33.8,32.0,93,30.21,3.7,East,2.3,-,N/A,,Mostly Cloudy,80,2012-11-17 06:45:00
8:15 AM,35.6,33.8,93,30.21,3.7,Calm,Calm,-,N/A,,Mostly Cloudy,0,2012-11-17 07:15:00
8:45 AM,37.4,35.6,93,30.24,4.3,SSE,2.3,-,N/A,,Mostly Cloudy,150,2012-11-17 07:45:00
9:00 AM,-9999,-9999,N/A,-9999,-9999.0,Variable,3.5,-,N/A,,Clear,0,2012-11-17 08:00:00
9:15 AM,39.2,37.4,93,30.21,3.7,ESE,2.3,-,N/A,,Mostly Cloudy,120,2012-11-17 08:15:00
9:45 AM,41.0,37.4,87,30.21,4.3,SSE,3.5,-,N/A,,Mostly Cloudy,160,2012-11-17 08:45:00
10:15 AM,42.8,39.2,87,30.21,5.0,South,3.5,-,N/A,,Mostly Cloudy,170,2012-11-17 09:15:00
10:45 AM,42.8,39.2,87,30.21,6.2,SSW,3.5,-,N/A,,Scattered Clouds,200,2012-11-17 09:45:00
11:15 AM,46.4,39.2,76,30.21,-9999.0,South,2.3,-,N/A,,Clear,190,2012-11-17 10:15:00
11:45 AM,46.4,41.0,81,30.18,-9999.0,SW,2.3,-,N/A,,Clear,230,2012-11-17 10:45:00
12:00 PM,-9999,-9999,N/A,-9999,-9999.0,Variable,3.5,-,N/A,,Clear,0,2012-11-17 11:00:00
12:15 PM,48.2,41.0,76,30.18,-9999.0,West,2.3,-,N/A,,Clear,260,2012-11-17 11:15:00
12:45 PM,48.2,41.0,76,30.18,-9999.0,NW,3.5,-,N/A,,Clear,320,2012-11-17 11:45:00
1:00 PM,48,40,66,30.19,6,NW,4.5,,,,Partly Cloudy,320,2012-11-17 12:00:00
1:15 PM,50.0,39.2,66,30.18,-9999.0,WNW,2.3,-,N/A,,Clear,300,2012-11-17 12:15:00
1:45 PM,50.0,39.2,66,30.15,-9999.0,Calm,Calm,-,N/A,,Clear,0,2012-11-17 12:45:00
2:15 PM,50.0,41.0,71,30.15,-9999.0,NNW,1.2,-,N/A,,Clear,330,2012-11-17 13:15:00
2:45 PM,50.0,39.2,66,30.15,-9999.0,NW,2.3,-,N/A,,Clear,320,2012-11-17 13:45:00
3:15 PM,50.0,39.2,66,30.15,-9999.0,NNE,1.2,-,N/A,,Clear,20,2012-11-17 14:15:00
3:45 PM,48.2,39.2,71,30.15,5.0,East,3.5,-,N/A,,Partly Cloudy,80,2012-11-17 14:45:00
4:12 PM,44.6,39.2,81,30.15,2.5,ENE,5.8,-,N/A,,Partly Cloudy,70,2012-11-17 15:12:00
4:15 PM,44.6,39.2,81,30.15,-9999.0,East,5.8,-,N/A,,Partly Cloudy,80,2012-11-17 15:15:00
4:45 PM,44.6,39.2,81,30.15,2.8,NE,3.5,-,N/A,,Partly Cloudy,40,2012-11-17 15:45:00
6:00 PM,-9999,-9999,N/A,-9999,-9999.0,North,-9999.0,-,N/A,,Unknown,0,2012-11-17 17:00:00
7:00 PM,42,39,83,30.14,,NNE,4.5,,,,,20,2012-11-17 18:00:00